In Rescue
 
Open Full Screen Window  High Contrast Mode
November 20, 2019 2:49 AM EST
Present Weather: Mist
Weather Information
Wind Direction
  ---
Wind Speed
  00 kt (0 mph)
Wind Gust
  00 kt (0 mph)
Altimeter
30.03 in
Visibility
5 SM
Temperature
00° C
32° F
Dewpoint
-01° C
30° F
Humidity
93%
Sky Condition
Clear
MVFR

METAR KTEW 200749Z AUTO 00000KT 5SM BR CLR 00/M01 A3003 RMK AO2 T00021009

FAA Disclaimer: The data displayed is for advisory purposes only and is not to be used for flight planning or operations.